sensor_id;sensor_type;location;lat;lon;timestamp;P1;durP1;ratioP1;P2;durP2;ratioP2
9823;SDS011;4951;50.778;7.196;2022-10-03T00:04:15;15.73;;;8.20;;
9823;SDS011;4951;50.778;7.196;2022-10-03T00:10:48;14.40;;;7.20;;
9823;SDS011;4951;50.778;7.196;2022-10-03T00:13:24;12.87;;;6.47;;
9823;SDS011;4951;50.778;7.196;2022-10-03T00:16:01;12.57;;;6.43;;
9823;SDS011;4951;50.778;7.196;2022-10-03T00:18:38;14.60;;;7.20;;
9823;SDS011;4951;50.778;7.196;2022-10-03T00:21:20;11.90;;;6.73;;
9823;SDS011;4951;50.778;7.196;2022-10-03T00:23:56;18.17;;;7.33;;
9823;SDS011;4951;50.778;7.196;2022-10-03T00:26:36;14.27;;;6.07;;
9823;SDS011;4951;50.778;7.196;2022-10-03T00:29:22;13.63;;;6.60;;
9823;SDS011;4951;50.778;7.196;2022-10-03T00:32:14;13.27;;;7.97;;
9823;SDS011;4951;50.778;7.196;2022-10-03T00:35:15;13.93;;;5.97;;
9823;SDS011;4951;50.778;7.196;2022-10-03T00:37:57;14.30;;;6.57;;
9823;SDS011;4951;50.778;7.196;2022-10-03T00:43:47;13.80;;;6.27;;
9823;SDS011;4951;50.778;7.196;2022-10-03T00:46:43;12.10;;;5.90;;
9823;SDS011;4951;50.778;7.196;2022-10-03T00:49:46;8.10;;;4.23;;
9823;SDS011;4951;50.778;7.196;2022-10-03T00:52:37;12.03;;;5.63;;
9823;SDS011;4951;50.778;7.196;2022-10-03T00:55:17;15.73;;;5.60;;
9823;SDS011;4951;50.778;7.196;2022-10-03T00:57:56;13.73;;;5.97;;
9823;SDS011;4951;50.778;7.196;2022-10-03T01:00:35;16.47;;;6.70;;
9823;SDS011;4951;50.778;7.196;2022-10-03T01:03:08;13.83;;;7.13;;
9823;SDS011;4951;50.778;7.196;2022-10-03T01:06:00;15.83;;;6.80;;
9823;SDS011;4951;50.778;7.196;2022-10-03T01:08:45;12.53;;;7.17;;
9823;SDS011;4951;50.778;7.196;2022-10-03T01:11:39;16.13;;;6.30;;
9823;SDS011;4951;50.778;7.196;2022-10-03T01:14:22;10.93;;;5.20;;
9823;SDS011;4951;50.778;7.196;2022-10-03T01:17:04;8.17;;;5.20;;
9823;SDS011;4951;50.778;7.196;2022-10-03T01:19:47;9.20;;;5.07;;
9823;SDS011;4951;50.778;7.196;2022-10-03T01:22:53;7.70;;;5.07;;
9823;SDS011;4951;50.778;7.196;2022-10-03T01:25:58;11.67;;;5.83;;
9823;SDS011;4951;50.778;7.196;2022-10-03T01:28:38;8.60;;;4.97;;
9823;SDS011;4951;50.778;7.196;2022-10-03T01:31:31;7.93;;;4.53;;
9823;SDS011;4951;50.778;7.196;2022-10-03T01:34:06;7.87;;;4.73;;
9823;SDS011;4951;50.778;7.196;2022-10-03T01:36:41;12.90;;;5.03;;
9823;SDS011;4951;50.778;7.196;2022-10-03T01:39:20;13.87;;;5.83;;
9823;SDS011;4951;50.778;7.196;2022-10-03T01:41:55;13.07;;;7.07;;
9823;SDS011;4951;50.778;7.196;2022-10-03T01:44:27;18.33;;;7.20;;
9823;SDS011;4951;50.778;7.196;2022-10-03T01:47:06;13.90;;;6.30;;
9823;SDS011;4951;50.778;7.196;2022-10-03T01:49:44;8.17;;;5.63;;
9823;SDS011;4951;50.778;7.196;2022-10-03T01:52:16;11.60;;;5.97;;
9823;SDS011;4951;50.778;7.196;2022-10-03T01:54:49;12.37;;;6.27;;
9823;SDS011;4951;50.778;7.196;2022-10-03T01:57:24;12.43;;;5.43;;
9823;SDS011;4951;50.778;7.196;2022-10-03T02:00:04;8.10;;;5.30;;
9823;SDS011;4951;50.778;7.196;2022-10-03T02:02:40;13.03;;;6.33;;
9823;SDS011;4951;50.778;7.196;2022-10-03T02:05:12;13.73;;;6.10;;
9823;SDS011;4951;50.778;7.196;2022-10-03T02:07:49;10.07;;;5.20;;
9823;SDS011;4951;50.778;7.196;2022-10-03T02:10:24;8.17;;;4.63;;
9823;SDS011;4951;50.778;7.196;2022-10-03T02:13:02;11.00;;;5.43;;
9823;SDS011;4951;50.778;7.196;2022-10-03T02:15:40;12.63;;;5.70;;
9823;SDS011;4951;50.778;7.196;2022-10-03T02:18:21;11.17;;;5.20;;
9823;SDS011;4951;50.778;7.196;2022-10-03T02:20:57;12.73;;;6.00;;
9823;SDS011;4951;50.778;7.196;2022-10-03T02:23:37;8.50;;;5.30;;
9823;SDS011;4951;50.778;7.196;2022-10-03T02:26:23;11.00;;;6.13;;
9823;SDS011;4951;50.778;7.196;2022-10-03T02:29:20;9.80;;;5.67;;
9823;SDS011;4951;50.778;7.196;2022-10-03T02:32:02;10.57;;;4.93;;
9823;SDS011;4951;50.778;7.196;2022-10-03T02:35:05;8.37;;;6.00;;
9823;SDS011;4951;50.778;7.196;2022-10-03T02:37:59;9.83;;;5.17;;
9823;SDS011;4951;50.778;7.196;2022-10-03T02:40:40;11.57;;;5.63;;
9823;SDS011;4951;50.778;7.196;2022-10-03T02:43:42;7.90;;;5.20;;
9823;SDS011;4951;50.778;7.196;2022-10-03T02:46:44;9.23;;;5.47;;
9823;SDS011;4951;50.778;7.196;2022-10-03T02:52:57;10.17;;;5.43;;
9823;SDS011;4951;50.778;7.196;2022-10-03T02:56:09;9.83;;;6.57;;
9823;SDS011;4951;50.778;7.196;2022-10-03T02:58:59;8.77;;;6.03;;
9823;SDS011;4951;50.778;7.196;2022-10-03T03:08:12;9.37;;;5.20;;
9823;SDS011;4951;50.778;7.196;2022-10-03T03:14:00;8.17;;;5.43;;
9823;SDS011;4951;50.778;7.196;2022-10-03T03:16:59;7.90;;;4.40;;
9823;SDS011;4951;50.778;7.196;2022-10-03T03:19:39;6.90;;;5.27;;
9823;SDS011;4951;50.778;7.196;2022-10-03T03:22:17;9.37;;;5.53;;
9823;SDS011;4951;50.778;7.196;2022-10-03T03:28:02;9.20;;;5.10;;
9823;SDS011;4951;50.778;7.196;2022-10-03T03:30:41;11.43;;;6.17;;
9823;SDS011;4951;50.778;7.196;2022-10-03T03:33:24;13.70;;;6.63;;
9823;SDS011;4951;50.778;7.196;2022-10-03T03:36:04;10.40;;;5.37;;
9823;SDS011;4951;50.778;7.196;2022-10-03T03:38:45;12.33;;;6.63;;
9823;SDS011;4951;50.778;7.196;2022-10-03T03:41:28;9.03;;;5.50;;
9823;SDS011;4951;50.778;7.196;2022-10-03T03:50:18;14.17;;;6.60;;
9823;SDS011;4951;50.778;7.196;2022-10-03T03:52:59;13.20;;;6.10;;
9823;SDS011;4951;50.778;7.196;2022-10-03T03:55:50;11.60;;;5.80;;
9823;SDS011;4951;50.778;7.196;2022-10-03T03:58:35;11.80;;;5.67;;
9823;SDS011;4951;50.778;7.196;2022-10-03T04:01:15;8.90;;;5.00;;
9823;SDS011;4951;50.778;7.196;2022-10-03T04:04:09;12.93;;;5.43;;
9823;SDS011;4951;50.778;7.196;2022-10-03T04:06:48;10.23;;;5.53;;
9823;SDS011;4951;50.778;7.196;2022-10-03T04:09:33;9.13;;;5.07;;
9823;SDS011;4951;50.778;7.196;2022-10-03T04:12:18;10.40;;;5.83;;
9823;SDS011;4951;50.778;7.196;2022-10-03T04:15:01;7.63;;;4.83;;
9823;SDS011;4951;50.778;7.196;2022-10-03T04:17:46;14.77;;;5.93;;
9823;SDS011;4951;50.778;7.196;2022-10-03T04:20:44;9.13;;;5.47;;
9823;SDS011;4951;50.778;7.196;2022-10-03T04:26:21;12.53;;;6.77;;
9823;SDS011;4951;50.778;7.196;2022-10-03T04:29:10;14.87;;;5.40;;
9823;SDS011;4951;50.778;7.196;2022-10-03T04:32:02;10.47;;;5.57;;
9823;SDS011;4951;50.778;7.196;2022-10-03T04:35:03;8.20;;;5.07;;
9823;SDS011;4951;50.778;7.196;2022-10-03T04:37:48;11.63;;;5.87;;
9823;SDS011;4951;50.778;7.196;2022-10-03T04:40:29;10.10;;;5.67;;
9823;SDS011;4951;50.778;7.196;2022-10-03T04:43:09;5.97;;;4.47;;
9823;SDS011;4951;50.778;7.196;2022-10-03T04:45:52;8.53;;;5.67;;
9823;SDS011;4951;50.778;7.196;2022-10-03T04:48:32;7.97;;;5.10;;
9823;SDS011;4951;50.778;7.196;2022-10-03T04:51:06;11.30;;;5.83;;
9823;SDS011;4951;50.778;7.196;2022-10-03T04:53:47;9.63;;;6.40;;
9823;SDS011;4951;50.778;7.196;2022-10-03T04:59:25;10.47;;;5.70;;
9823;SDS011;4951;50.778;7.196;2022-10-03T05:02:06;7.03;;;5.73;;
9823;SDS011;4951;50.778;7.196;2022-10-03T05:04:53;10.70;;;6.03;;
9823;SDS011;4951;50.778;7.196;2022-10-03T05:07:37;9.60;;;6.03;;
9823;SDS011;4951;50.778;7.196;2022-10-03T05:11:43;12.50;;;7.43;;
9823;SDS011;4951;50.778;7.196;2022-10-03T05:13:55;7.70;;;4.63;;
9823;SDS011;4951;50.778;7.196;2022-10-03T05:16:37;9.10;;;6.13;;
9823;SDS011;4951;50.778;7.196;2022-10-03T05:19:34;9.17;;;5.40;;
9823;SDS011;4951;50.778;7.196;2022-10-03T05:22:43;11.17;;;5.90;;
9823;SDS011;4951;50.778;7.196;2022-10-03T05:25:21;12.77;;;7.53;;
9823;SDS011;4951;50.778;7.196;2022-10-03T05:28:20;8.57;;;5.77;;
9823;SDS011;4951;50.778;7.196;2022-10-03T05:31:15;12.67;;;5.63;;
9823;SDS011;4951;50.778;7.196;2022-10-03T05:34:17;9.10;;;5.23;;
9823;SDS011;4951;50.778;7.196;2022-10-03T05:37:07;13.17;;;5.83;;
9823;SDS011;4951;50.778;7.196;2022-10-03T05:41:01;11.33;;;7.13;;
9823;SDS011;4951;50.778;7.196;2022-10-03T05:43:45;14.10;;;5.87;;
9823;SDS011;4951;50.778;7.196;2022-10-03T05:46:38;12.23;;;5.67;;
9823;SDS011;4951;50.778;7.196;2022-10-03T05:51:18;9.70;;;5.20;;
9823;SDS011;4951;50.778;7.196;2022-10-03T05:57:01;9.97;;;5.70;;
9823;SDS011;4951;50.778;7.196;2022-10-03T06:00:13;10.00;;;5.33;;
9823;SDS011;4951;50.778;7.196;2022-10-03T06:02:52;7.00;;;5.17;;
9823;SDS011;4951;50.778;7.196;2022-10-03T06:05:49;10.67;;;6.07;;
9823;SDS011;4951;50.778;7.196;2022-10-03T06:12:04;6.23;;;4.10;;
9823;SDS011;4951;50.778;7.196;2022-10-03T06:28:45;10.50;;;7.20;;
9823;SDS011;4951;50.778;7.196;2022-10-03T06:32:01;10.33;;;5.20;;
9823;SDS011;4951;50.778;7.196;2022-10-03T06:38:18;8.67;;;6.20;;
9823;SDS011;4951;50.778;7.196;2022-10-03T06:45:14;7.80;;;4.53;;
9823;SDS011;4951;50.778;7.196;2022-10-03T06:51:54;7.67;;;5.07;;
9823;SDS011;4951;50.778;7.196;2022-10-03T06:58:06;11.07;;;6.07;;
9823;SDS011;4951;50.778;7.196;2022-10-03T07:05:01;12.13;;;7.10;;
9823;SDS011;4951;50.778;7.196;2022-10-03T07:07:59;10.73;;;5.80;;
9823;SDS011;4951;50.778;7.196;2022-10-03T07:11:00;7.97;;;6.50;;
9823;SDS011;4951;50.778;7.196;2022-10-03T07:20:46;11.00;;;7.03;;
9823;SDS011;4951;50.778;7.196;2022-10-03T07:28:10;12.00;;;5.23;;
9823;SDS011;4951;50.778;7.196;2022-10-03T07:31:01;9.10;;;6.63;;
9823;SDS011;4951;50.778;7.196;2022-10-03T08:00:09;9.47;;;5.47;;
9823;SDS011;4951;50.778;7.196;2022-10-03T08:06:24;15.53;;;6.40;;
9823;SDS011;4951;50.778;7.196;2022-10-03T08:16:15;16.23;;;6.40;;
9823;SDS011;4951;50.778;7.196;2022-10-03T08:22:14;13.63;;;6.73;;
9823;SDS011;4951;50.778;7.196;2022-10-03T08:25:41;11.30;;;6.70;;
9823;SDS011;4951;50.778;7.196;2022-10-03T08:28:34;14.53;;;7.53;;
9823;SDS011;4951;50.778;7.196;2022-10-03T08:34:44;17.27;;;7.53;;
9823;SDS011;4951;50.778;7.196;2022-10-03T08:37:46;13.37;;;7.27;;
9823;SDS011;4951;50.778;7.196;2022-10-03T08:50:03;13.87;;;7.13;;
9823;SDS011;4951;50.778;7.196;2022-10-03T08:56:07;13.83;;;8.33;;
9823;SDS011;4951;50.778;7.196;2022-10-03T09:05:36;15.03;;;7.80;;
9823;SDS011;4951;50.778;7.196;2022-10-03T09:12:22;16.03;;;7.33;;
9823;SDS011;4951;50.778;7.196;2022-10-03T09:18:35;19.57;;;8.87;;
9823;SDS011;4951;50.778;7.196;2022-10-03T09:31:22;15.37;;;8.23;;
9823;SDS011;4951;50.778;7.196;2022-10-03T09:34:18;16.37;;;7.97;;
9823;SDS011;4951;50.778;7.196;2022-10-03T09:38:02;16.00;;;8.90;;
9823;SDS011;4951;50.778;7.196;2022-10-03T09:47:45;15.37;;;6.73;;
9823;SDS011;4951;50.778;7.196;2022-10-03T09:50:54;16.00;;;6.53;;
9823;SDS011;4951;50.778;7.196;2022-10-03T10:00:25;16.03;;;6.77;;
9823;SDS011;4951;50.778;7.196;2022-10-03T10:09:15;15.77;;;5.23;;
9823;SDS011;4951;50.778;7.196;2022-10-03T10:18:58;13.27;;;5.03;;
9823;SDS011;4951;50.778;7.196;2022-10-03T10:24:55;11.80;;;4.97;;
9823;SDS011;4951;50.778;7.196;2022-10-03T10:49:48;11.73;;;4.20;;
9823;SDS011;4951;50.778;7.196;2022-10-03T10:54:05;9.17;;;3.57;;
9823;SDS011;4951;50.778;7.196;2022-10-03T10:57:14;10.17;;;4.13;;
9823;SDS011;4951;50.778;7.196;2022-10-03T11:00:56;7.50;;;3.00;;
9823;SDS011;4951;50.778;7.196;2022-10-03T11:07:13;8.30;;;3.30;;
9823;SDS011;4951;50.778;7.196;2022-10-03T11:10:44;10.13;;;3.57;;
9823;SDS011;4951;50.778;7.196;2022-10-03T11:39:52;6.03;;;2.30;;
9823;SDS011;4951;50.778;7.196;2022-10-03T11:43:41;5.23;;;2.40;;
9823;SDS011;4951;50.778;7.196;2022-10-03T11:46:59;9.73;;;2.60;;
9823;SDS011;4951;50.778;7.196;2022-10-03T12:04:18;12.33;;;3.40;;
9823;SDS011;4951;50.778;7.196;2022-10-03T12:07:24;6.23;;;2.53;;
9823;SDS011;4951;50.778;7.196;2022-10-03T12:10:24;7.83;;;3.10;;
9823;SDS011;4951;50.778;7.196;2022-10-03T12:13:07;8.47;;;2.63;;
9823;SDS011;4951;50.778;7.196;2022-10-03T12:15:42;7.67;;;2.50;;
9823;SDS011;4951;50.778;7.196;2022-10-03T12:19:00;7.27;;;2.30;;
9823;SDS011;4951;50.778;7.196;2022-10-03T12:42:50;5.80;;;2.33;;
9823;SDS011;4951;50.778;7.196;2022-10-03T12:47:20;6.63;;;2.40;;
9823;SDS011;4951;50.778;7.196;2022-10-03T12:55:22;9.47;;;2.53;;
9823;SDS011;4951;50.778;7.196;2022-10-03T12:57:53;6.53;;;2.40;;
9823;SDS011;4951;50.778;7.196;2022-10-03T13:00:30;7.70;;;2.70;;
9823;SDS011;4951;50.778;7.196;2022-10-03T13:03:31;6.13;;;2.23;;
9823;SDS011;4951;50.778;7.196;2022-10-03T13:06:30;6.90;;;2.43;;
9823;SDS011;4951;50.778;7.196;2022-10-03T13:14:19;6.07;;;2.23;;
9823;SDS011;4951;50.778;7.196;2022-10-03T13:20:49;6.73;;;2.60;;
9823;SDS011;4951;50.778;7.196;2022-10-03T13:24:25;9.40;;;2.50;;
9823;SDS011;4951;50.778;7.196;2022-10-03T13:31:33;6.60;;;2.30;;
9823;SDS011;4951;50.778;7.196;2022-10-03T13:44:53;5.77;;;2.67;;
9823;SDS011;4951;50.778;7.196;2022-10-03T13:47:41;5.70;;;2.43;;
9823;SDS011;4951;50.778;7.196;2022-10-03T13:50:20;9.40;;;2.70;;
9823;SDS011;4951;50.778;7.196;2022-10-03T13:54:52;5.63;;;2.35;;
9823;SDS011;4951;50.778;7.196;2022-10-03T14:07:21;5.63;;;2.38;;
9823;SDS011;4951;50.778;7.196;2022-10-03T14:11:22;7.22;;;2.60;;
9823;SDS011;4951;50.778;7.196;2022-10-03T14:13:59;3.92;;;1.85;;
9823;SDS011;4951;50.778;7.196;2022-10-03T14:16:39;6.45;;;2.22;;
9823;SDS011;4951;50.778;7.196;2022-10-03T14:19:10;6.68;;;2.15;;
9823;SDS011;4951;50.778;7.196;2022-10-03T14:22:01;6.20;;;1.80;;
9823;SDS011;4951;50.778;7.196;2022-10-03T14:25:03;8.77;;;2.80;;
9823;SDS011;4951;50.778;7.196;2022-10-03T14:27:58;5.97;;;2.00;;
9823;SDS011;4951;50.778;7.196;2022-10-03T14:30:48;8.90;;;2.13;;
9823;SDS011;4951;50.778;7.196;2022-10-03T14:33:27;7.05;;;1.80;;
9823;SDS011;4951;50.778;7.196;2022-10-03T14:36:02;4.93;;;2.28;;
9823;SDS011;4951;50.778;7.196;2022-10-03T14:38:49;5.22;;;2.38;;
9823;SDS011;4951;50.778;7.196;2022-10-03T14:41:32;5.93;;;2.13;;
9823;SDS011;4951;50.778;7.196;2022-10-03T14:44:14;7.47;;;2.00;;
9823;SDS011;4951;50.778;7.196;2022-10-03T14:46:56;7.68;;;2.17;;
9823;SDS011;4951;50.778;7.196;2022-10-03T14:49:28;6.53;;;2.17;;
9823;SDS011;4951;50.778;7.196;2022-10-03T14:52:20;4.28;;;2.10;;
9823;SDS011;4951;50.778;7.196;2022-10-03T14:54:56;5.68;;;2.20;;
9823;SDS011;4951;50.778;7.196;2022-10-03T14:57:32;4.47;;;2.20;;
9823;SDS011;4951;50.778;7.196;2022-10-03T15:00:03;5.30;;;2.00;;
9823;SDS011;4951;50.778;7.196;2022-10-03T15:02:32;5.95;;;2.78;;
9823;SDS011;4951;50.778;7.196;2022-10-03T15:05:09;5.10;;;2.17;;
9823;SDS011;4951;50.778;7.196;2022-10-03T15:07:59;5.93;;;2.25;;
9823;SDS011;4951;50.778;7.196;2022-10-03T15:11:16;4.70;;;2.20;;
9823;SDS011;4951;50.778;7.196;2022-10-03T15:13:55;7.22;;;2.67;;
9823;SDS011;4951;50.778;7.196;2022-10-03T15:17:15;4.20;;;2.10;;
9823;SDS011;4951;50.778;7.196;2022-10-03T15:19:51;8.75;;;2.33;;
9823;SDS011;4951;50.778;7.196;2022-10-03T15:22:33;6.72;;;2.17;;
9823;SDS011;4951;50.778;7.196;2022-10-03T15:25:14;8.65;;;2.70;;
9823;SDS011;4951;50.778;7.196;2022-10-03T15:28:14;5.40;;;2.15;;
9823;SDS011;4951;50.778;7.196;2022-10-03T15:31:06;4.93;;;2.10;;
9823;SDS011;4951;50.778;7.196;2022-10-03T15:34:37;3.80;;;1.90;;
9823;SDS011;4951;50.778;7.196;2022-10-03T15:37:13;5.72;;;2.05;;
9823;SDS011;4951;50.778;7.196;2022-10-03T15:40:08;4.78;;;2.10;;
9823;SDS011;4951;50.778;7.196;2022-10-03T15:43:05;5.00;;;2.37;;
9823;SDS011;4951;50.778;7.196;2022-10-03T15:48:40;5.10;;;2.17;;
9823;SDS011;4951;50.778;7.196;2022-10-03T15:51:14;7.50;;;2.30;;
9823;SDS011;4951;50.778;7.196;2022-10-03T15:54:01;6.10;;;2.47;;
9823;SDS011;4951;50.778;7.196;2022-10-03T15:56:40;7.47;;;2.77;;
9823;SDS011;4951;50.778;7.196;2022-10-03T15:59:24;8.77;;;2.33;;
9823;SDS011;4951;50.778;7.196;2022-10-03T16:01:58;5.30;;;2.30;;
9823;SDS011;4951;50.778;7.196;2022-10-03T16:04:34;5.90;;;2.70;;
9823;SDS011;4951;50.778;7.196;2022-10-03T16:07:05;5.03;;;2.40;;
9823;SDS011;4951;50.778;7.196;2022-10-03T16:09:41;5.80;;;2.20;;
9823;SDS011;4951;50.778;7.196;2022-10-03T16:15:36;6.10;;;2.47;;
9823;SDS011;4951;50.778;7.196;2022-10-03T16:21:09;5.40;;;2.50;;
9823;SDS011;4951;50.778;7.196;2022-10-03T16:23:48;7.83;;;2.73;;
9823;SDS011;4951;50.778;7.196;2022-10-03T16:26:20;3.87;;;2.33;;
9823;SDS011;4951;50.778;7.196;2022-10-03T16:28:59;4.93;;;2.50;;
9823;SDS011;4951;50.778;7.196;2022-10-03T16:31:38;6.33;;;2.60;;
9823;SDS011;4951;50.778;7.196;2022-10-03T16:34:11;4.87;;;2.80;;
9823;SDS011;4951;50.778;7.196;2022-10-03T16:36:42;7.53;;;3.00;;
9823;SDS011;4951;50.778;7.196;2022-10-03T16:39:16;6.20;;;2.40;;
9823;SDS011;4951;50.778;7.196;2022-10-03T16:41:51;5.97;;;2.70;;
9823;SDS011;4951;50.778;7.196;2022-10-03T16:44:23;8.27;;;3.07;;
9823;SDS011;4951;50.778;7.196;2022-10-03T16:47:00;6.00;;;2.97;;
9823;SDS011;4951;50.778;7.196;2022-10-03T16:49:34;7.17;;;3.20;;
9823;SDS011;4951;50.778;7.196;2022-10-03T16:52:33;5.83;;;3.20;;
9823;SDS011;4951;50.778;7.196;2022-10-03T16:55:43;7.73;;;3.23;;
9823;SDS011;4951;50.778;7.196;2022-10-03T16:58:22;7.67;;;3.00;;
9823;SDS011;4951;50.778;7.196;2022-10-03T17:01:12;5.97;;;2.90;;
9823;SDS011;4951;50.778;7.196;2022-10-03T17:03:45;7.53;;;3.60;;
9823;SDS011;4951;50.778;7.196;2022-10-03T17:06:20;7.43;;;3.60;;
9823;SDS011;4951;50.778;7.196;2022-10-03T17:09:13;8.57;;;3.73;;
9823;SDS011;4951;50.778;7.196;2022-10-03T17:12:06;7.67;;;3.80;;
9823;SDS011;4951;50.778;7.196;2022-10-03T17:15:19;9.63;;;3.83;;
9823;SDS011;4951;50.778;7.196;2022-10-03T17:17:51;6.53;;;3.80;;
9823;SDS011;4951;50.778;7.196;2022-10-03T17:20:31;10.43;;;4.83;;
9823;SDS011;4951;50.778;7.196;2022-10-03T17:23:25;6.80;;;4.00;;
9823;SDS011;4951;50.778;7.196;2022-10-03T17:26:14;8.93;;;4.80;;
9823;SDS011;4951;50.778;7.196;2022-10-03T17:28:57;8.07;;;4.83;;
9823;SDS011;4951;50.778;7.196;2022-10-03T17:31:40;11.77;;;6.00;;
9823;SDS011;4951;50.778;7.196;2022-10-03T17:34:15;9.00;;;5.67;;
9823;SDS011;4951;50.778;7.196;2022-10-03T17:40:01;14.40;;;7.47;;
9823;SDS011;4951;50.778;7.196;2022-10-03T17:42:54;11.93;;;6.33;;
9823;SDS011;4951;50.778;7.196;2022-10-03T17:45:32;9.40;;;4.90;;
9823;SDS011;4951;50.778;7.196;2022-10-03T17:48:15;10.00;;;4.40;;
9823;SDS011;4951;50.778;7.196;2022-10-03T17:53:56;9.37;;;3.80;;
9823;SDS011;4951;50.778;7.196;2022-10-03T17:56:52;6.47;;;4.43;;
9823;SDS011;4951;50.778;7.196;2022-10-03T17:59:23;7.57;;;4.17;;
9823;SDS011;4951;50.778;7.196;2022-10-03T18:01:56;10.60;;;4.90;;
9823;SDS011;4951;50.778;7.196;2022-10-03T18:04:52;8.80;;;5.00;;
9823;SDS011;4951;50.778;7.196;2022-10-03T18:07:35;9.07;;;5.90;;
9823;SDS011;4951;50.778;7.196;2022-10-03T18:10:19;6.47;;;4.43;;
9823;SDS011;4951;50.778;7.196;2022-10-03T18:12:54;9.50;;;5.40;;
9823;SDS011;4951;50.778;7.196;2022-10-03T18:18:44;11.00;;;5.47;;
9823;SDS011;4951;50.778;7.196;2022-10-03T18:24:34;9.53;;;5.47;;
9823;SDS011;4951;50.778;7.196;2022-10-03T18:27:15;8.53;;;5.37;;
9823;SDS011;4951;50.778;7.196;2022-10-03T18:30:13;11.00;;;5.40;;
9823;SDS011;4951;50.778;7.196;2022-10-03T18:32:55;10.07;;;5.50;;
9823;SDS011;4951;50.778;7.196;2022-10-03T18:35:26;13.13;;;4.80;;
9823;SDS011;4951;50.778;7.196;2022-10-03T18:38:02;11.10;;;5.30;;
9823;SDS011;4951;50.778;7.196;2022-10-03T18:40:39;10.00;;;5.53;;
9823;SDS011;4951;50.778;7.196;2022-10-03T18:43:28;12.20;;;5.80;;
9823;SDS011;4951;50.778;7.196;2022-10-03T18:50:02;10.97;;;5.43;;
9823;SDS011;4951;50.778;7.196;2022-10-03T18:52:53;12.43;;;5.47;;
9823;SDS011;4951;50.778;7.196;2022-10-03T18:55:25;9.00;;;4.97;;
9823;SDS011;4951;50.778;7.196;2022-10-03T18:57:56;9.67;;;4.83;;
9823;SDS011;4951;50.778;7.196;2022-10-03T19:00:30;9.40;;;5.20;;
9823;SDS011;4951;50.778;7.196;2022-10-03T19:03:11;9.90;;;5.37;;
9823;SDS011;4951;50.778;7.196;2022-10-03T19:05:43;14.53;;;5.60;;
9823;SDS011;4951;50.778;7.196;2022-10-03T19:08:16;9.30;;;4.80;;
9823;SDS011;4951;50.778;7.196;2022-10-03T19:10:49;14.60;;;6.10;;
9823;SDS011;4951;50.778;7.196;2022-10-03T19:13:25;10.40;;;6.07;;
9823;SDS011;4951;50.778;7.196;2022-10-03T19:15:59;12.13;;;5.70;;
9823;SDS011;4951;50.778;7.196;2022-10-03T19:18:53;10.43;;;6.00;;
9823;SDS011;4951;50.778;7.196;2022-10-03T19:21:31;11.70;;;5.80;;
9823;SDS011;4951;50.778;7.196;2022-10-03T19:24:02;9.47;;;5.67;;
9823;SDS011;4951;50.778;7.196;2022-10-03T19:26:43;10.10;;;5.93;;
9823;SDS011;4951;50.778;7.196;2022-10-03T19:29:12;12.77;;;5.47;;
9823;SDS011;4951;50.778;7.196;2022-10-03T19:31:49;9.33;;;4.70;;
9823;SDS011;4951;50.778;7.196;2022-10-03T19:34:23;9.63;;;4.60;;
9823;SDS011;4951;50.778;7.196;2022-10-03T19:39:57;8.63;;;5.23;;
9823;SDS011;4951;50.778;7.196;2022-10-03T19:42:27;11.00;;;5.07;;
9823;SDS011;4951;50.778;7.196;2022-10-03T19:45:02;10.43;;;6.00;;
9823;SDS011;4951;50.778;7.196;2022-10-03T19:47:37;10.23;;;5.73;;
9823;SDS011;4951;50.778;7.196;2022-10-03T19:50:10;13.67;;;6.03;;
9823;SDS011;4951;50.778;7.196;2022-10-03T19:52:49;9.57;;;5.13;;
9823;SDS011;4951;50.778;7.196;2022-10-03T19:55:19;9.37;;;4.90;;
9823;SDS011;4951;50.778;7.196;2022-10-03T19:57:49;9.73;;;5.43;;
9823;SDS011;4951;50.778;7.196;2022-10-03T20:00:30;7.97;;;5.20;;
9823;SDS011;4951;50.778;7.196;2022-10-03T20:03:06;9.07;;;5.43;;
9823;SDS011;4951;50.778;7.196;2022-10-03T20:05:42;10.47;;;5.33;;
9823;SDS011;4951;50.778;7.196;2022-10-03T20:08:37;11.23;;;6.27;;
9823;SDS011;4951;50.778;7.196;2022-10-03T20:11:33;7.93;;;5.53;;
9823;SDS011;4951;50.778;7.196;2022-10-03T20:14:12;12.90;;;6.17;;
9823;SDS011;4951;50.778;7.196;2022-10-03T20:16:45;14.63;;;5.80;;
9823;SDS011;4951;50.778;7.196;2022-10-03T20:19:15;9.97;;;6.63;;
9823;SDS011;4951;50.778;7.196;2022-10-03T20:21:49;9.53;;;5.30;;
9823;SDS011;4951;50.778;7.196;2022-10-03T20:24:21;8.50;;;5.20;;
9823;SDS011;4951;50.778;7.196;2022-10-03T20:26:56;15.23;;;6.17;;
9823;SDS011;4951;50.778;7.196;2022-10-03T20:29:33;12.40;;;5.67;;
9823;SDS011;4951;50.778;7.196;2022-10-03T20:32:16;10.40;;;5.97;;
9823;SDS011;4951;50.778;7.196;2022-10-03T20:34:49;11.97;;;6.47;;
9823;SDS011;4951;50.778;7.196;2022-10-03T20:40:21;13.87;;;6.30;;
9823;SDS011;4951;50.778;7.196;2022-10-03T20:42:58;10.27;;;5.83;;
9823;SDS011;4951;50.778;7.196;2022-10-03T20:45:44;11.00;;;6.13;;
9823;SDS011;4951;50.778;7.196;2022-10-03T20:48:24;11.37;;;5.50;;
9823;SDS011;4951;50.778;7.196;2022-10-03T20:51:12;8.27;;;4.93;;
9823;SDS011;4951;50.778;7.196;2022-10-03T20:53:54;12.37;;;6.27;;
9823;SDS011;4951;50.778;7.196;2022-10-03T20:59:29;8.87;;;6.30;;
9823;SDS011;4951;50.778;7.196;2022-10-03T21:02:05;10.47;;;5.77;;
9823;SDS011;4951;50.778;7.196;2022-10-03T21:04:50;8.27;;;6.60;;
9823;SDS011;4951;50.778;7.196;2022-10-03T21:07:36;11.10;;;7.03;;
9823;SDS011;4951;50.778;7.196;2022-10-03T21:10:17;11.57;;;6.80;;
9823;SDS011;4951;50.778;7.196;2022-10-03T21:12:57;13.70;;;8.07;;
9823;SDS011;4951;50.778;7.196;2022-10-03T21:15:50;8.17;;;5.57;;
9823;SDS011;4951;50.778;7.196;2022-10-03T21:18:29;10.13;;;6.23;;
9823;SDS011;4951;50.778;7.196;2022-10-03T21:21:07;9.23;;;6.50;;
9823;SDS011;4951;50.778;7.196;2022-10-03T21:23:45;9.90;;;5.80;;
9823;SDS011;4951;50.778;7.196;2022-10-03T21:26:19;13.93;;;7.03;;
9823;SDS011;4951;50.778;7.196;2022-10-03T21:28:54;13.87;;;7.70;;
9823;SDS011;4951;50.778;7.196;2022-10-03T21:32:00;10.57;;;6.60;;
9823;SDS011;4951;50.778;7.196;2022-10-03T21:34:41;16.27;;;6.83;;
9823;SDS011;4951;50.778;7.196;2022-10-03T21:37:14;12.20;;;6.93;;
9823;SDS011;4951;50.778;7.196;2022-10-03T21:39:53;10.33;;;7.03;;
9823;SDS011;4951;50.778;7.196;2022-10-03T21:42:38;10.77;;;5.83;;
9823;SDS011;4951;50.778;7.196;2022-10-03T21:45:25;14.17;;;5.80;;
9823;SDS011;4951;50.778;7.196;2022-10-03T21:48:03;11.20;;;6.20;;
9823;SDS011;4951;50.778;7.196;2022-10-03T21:50:42;11.30;;;5.80;;
9823;SDS011;4951;50.778;7.196;2022-10-03T21:53:26;10.97;;;6.37;;
9823;SDS011;4951;50.778;7.196;2022-10-03T21:56:16;11.50;;;7.20;;
9823;SDS011;4951;50.778;7.196;2022-10-03T21:59:05;9.87;;;7.17;;
9823;SDS011;4951;50.778;7.196;2022-10-03T22:01:45;15.37;;;8.23;;
9823;SDS011;4951;50.778;7.196;2022-10-03T22:04:19;14.07;;;7.40;;
9823;SDS011;4951;50.778;7.196;2022-10-03T22:07:24;10.70;;;6.20;;
9823;SDS011;4951;50.778;7.196;2022-10-03T22:09:47;10.93;;;6.77;;
9823;SDS011;4951;50.778;7.196;2022-10-03T22:12:16;9.80;;;6.10;;
9823;SDS011;4951;50.778;7.196;2022-10-03T22:14:45;10.03;;;7.07;;
9823;SDS011;4951;50.778;7.196;2022-10-03T22:17:22;11.97;;;6.33;;
9823;SDS011;4951;50.778;7.196;2022-10-03T22:19:56;9.57;;;6.70;;
9823;SDS011;4951;50.778;7.196;2022-10-03T22:22:46;9.93;;;6.10;;
9823;SDS011;4951;50.778;7.196;2022-10-03T22:25:27;9.13;;;6.73;;
9823;SDS011;4951;50.778;7.196;2022-10-03T22:28:05;11.70;;;6.90;;
9823;SDS011;4951;50.778;7.196;2022-10-03T22:30:44;9.50;;;5.30;;
9823;SDS011;4951;50.778;7.196;2022-10-03T22:33:21;11.80;;;6.87;;
9823;SDS011;4951;50.778;7.196;2022-10-03T22:35:58;13.83;;;7.10;;
9823;SDS011;4951;50.778;7.196;2022-10-03T22:38:37;10.77;;;7.23;;
9823;SDS011;4951;50.778;7.196;2022-10-03T22:41:31;11.20;;;7.10;;
9823;SDS011;4951;50.778;7.196;2022-10-03T22:44:13;11.33;;;7.70;;
9823;SDS011;4951;50.778;7.196;2022-10-03T22:46:48;9.60;;;7.13;;
9823;SDS011;4951;50.778;7.196;2022-10-03T22:49:25;11.97;;;7.20;;
9823;SDS011;4951;50.778;7.196;2022-10-03T22:52:12;14.07;;;6.63;;
9823;SDS011;4951;50.778;7.196;2022-10-03T22:54:45;9.77;;;6.77;;
9823;SDS011;4951;50.778;7.196;2022-10-03T22:58:14;16.67;;;8.73;;
9823;SDS011;4951;50.778;7.196;2022-10-03T23:00:48;12.50;;;7.37;;
9823;SDS011;4951;50.778;7.196;2022-10-03T23:03:21;9.57;;;6.63;;
9823;SDS011;4951;50.778;7.196;2022-10-03T23:06:07;7.20;;;5.23;;